Albright, West Virginia
Current Conditions -  °F | °C
As of 7:05 AM on Monday 20 Oct 2014 (Local Time) from K2G4 Reporting Station
Clear Clear  
Wind Chill: 31°   Ceiling: Unl
Heat Index: 36°   Visibility: 10mi
Dew Point: 36°   Wind: 6mph
Humidity: 100%   Direction: 210°SSW
Pressure: 30.03"   Gusts: NA
Location:  39.49°N, 79.64°W
Report Text: K2G4 201105Z AUTO 21005KT 10SM CLR 02/02 A3003 RMK AO1
Loading
Personal Weather Stations






























Interactive Weather Map New forecast layout! Learn more

10-Day Weather Forecast

Advertisements
Track Severe Weather on mobile